Time;durP1;ratioP1;P1;durP2;ratioP2;P2;SDS_P1;SDS_P2;PMS_P1;PMS_P2;Temp;Humidity;BMP_temperature;BMP_pressure;BME280_temperature;BME280_humidity;BME280_pressure;Samples;Min_cycle;Max_cycle;Signal;HPM_P1;HPM_P2
2021/04/24 00:00:45;;;;;;;2.55;2.00;;;;;;;8.24;42.84;101352.47;6221012;23;20043;-76
2021/04/24 00:03:19;;;;;;;2.80;1.55;;;;;;;8.25;42.56;101373.19;6195099;23;20659;-75
2021/04/24 00:05:57;;;;;;;1.90;1.55;;;;;;;7.99;43.60;101331.56;6162818;23;20051;-75
2021/04/24 00:08:55;;;;;;;1.65;1.55;;;;;;;7.92;43.40;101325.38;6191082;23;20013;-77
2021/04/24 00:11:39;;;;;;;;;;;;;;;;;;;;;
2021/04/24 00:14:06;;;;;;;3.42;1.20;;;;;;;7.81;43.06;101325.06;6219549;23;20024;-76
2021/04/24 00:16:31;;;;;;;1.35;1.25;;;;;;;8.00;43.71;101371.34;6217899;23;20020;-76
2021/04/24 00:19:05;;;;;;;1.70;1.60;;;;;;;7.76;43.72;101327.59;6220323;23;20406;-77
2021/04/24 00:21:33;;;;;;;1.77;0.98;;;;;;;7.73;43.42;101338.97;6217541;23;20005;-77
2021/04/24 00:24:10;;;;;;;1.30;1.20;;;;;;;7.70;43.26;101339.41;6219039;23;20011;-75
2021/04/24 00:26:39;;;;;;;7.25;1.33;;;;;;;7.77;44.20;101361.09;6192091;23;20000;-75
2021/04/24 00:29:07;;;;;;;5.35;1.25;;;;;;;7.64;44.32;101343.03;6193571;23;20013;-76
2021/04/24 00:31:33;;;;;;;0.80;0.80;;;;;;;7.47;44.24;101324.53;6193052;23;20323;-75
2021/04/24 00:34:01;;;;;;;1.58;1.08;;;;;;;7.51;44.41;101336.63;6192118;23;20015;-75
2021/04/24 00:39:44;;;;;;;;;;;;;;;;;;;;;
2021/04/24 00:42:34;;;;;;;2.83;1.17;;;;;;;7.24;44.80;101299.84;6220115;23;20024;-76
2021/04/24 00:45:17;;;;;;;1.40;1.20;;;;;;;7.19;45.73;101302.41;6225885;23;20000;-76
2021/04/24 00:48:08;;;;;;;3.15;1.58;;;;;;;7.24;45.91;101318.88;6182072;23;20005;-75
2021/04/24 00:50:54;;;;;;;1.98;1.45;;;;;;;7.36;46.05;101328.00;6231925;23;20087;-75
2021/04/24 00:53:32;;;;;;;2.00;1.42;;;;;;;7.38;46.68;101325.06;6204929;23;20008;-75
2021/04/24 00:55:58;;;;;;;1.80;1.08;;;;;;;7.31;46.75;101308.78;6210105;23;20012;-75
2021/04/24 00:58:38;;;;;;;;;;;;;;;;;;;;;
2021/04/24 01:01:31;;;;;;;;;;;;;;;;;;;;;
2021/04/24 01:03:57;;;;;;;1.95;1.17;;;;;;;7.22;46.59;101293.78;6232455;23;20008;-76
2021/04/24 01:06:23;;;;;;;2.40;1.70;;;;;;;7.18;47.00;101282.50;6228626;23;20004;-76
2021/04/24 01:09:06;;;;;;;;;;;;;;;;;;;;;
2021/04/24 01:11:32;;;;;;;1.27;1.17;;;;;;;7.14;47.06;101298.47;6206957;23;20028;-75
2021/04/24 01:14:14;;;;;;;2.15;1.63;;;;;;;6.95;47.78;101269.50;6202725;23;20015;-75
2021/04/24 01:16:42;;;;;;;1.42;1.30;;;;;;;7.11;47.64;101303.50;6208264;23;20059;-75
2021/04/24 01:19:28;;;;;;;3.45;1.83;;;;;;;7.16;47.81;101299.06;6226150;23;20016;-76
2021/04/24 01:22:32;;;;;;;1.85;1.38;;;;;;;7.15;47.80;101289.25;6226422;23;20004;-75
2021/04/24 01:25:09;;;;;;;1.50;1.38;;;;;;;7.06;48.04;101274.25;6200981;23;20012;-76
2021/04/24 01:27:38;;;;;;;1.98;1.83;;;;;;;7.15;48.42;101296.56;6228827;23;20008;-76
2021/04/24 01:30:16;;;;;;;1.50;1.33;;;;;;;6.95;47.92;101264.94;6223515;23;20001;-76
2021/04/24 01:32:44;;;;;;;3.63;1.15;;;;;;;6.94;48.06;101265.16;6199804;23;20012;-75
2021/04/24 01:35:16;;;;;;;3.22;1.38;;;;;;;7.17;47.64;101302.63;6200910;23;20008;-77
2021/04/24 01:37:42;;;;;;;1.40;1.30;;;;;;;7.00;47.98;101280.56;6226441;23;20001;-76
2021/04/24 01:40:13;;;;;;;1.48;1.38;;;;;;;7.07;47.83;101294.94;6198554;23;20007;-77
2021/04/24 01:42:40;;;;;;;2.08;1.30;;;;;;;7.00;48.41;101288.72;6199927;23;20008;-76
2021/04/24 01:45:10;;;;;;;2.63;2.40;;;;;;;7.10;48.48;101302.66;6225033;23;20399;-76
2021/04/24 01:47:46;;;;;;;;;;;;;;;;;;;;;
2021/04/24 01:50:35;;;;;;;2.53;1.38;;;;;;;7.01;47.84;101275.97;6190037;23;20095;-76
2021/04/24 01:53:08;;;;;;;1.65;1.52;;;;;;;7.11;48.29;101300.78;6202200;23;20000;-76
2021/04/24 01:56:06;;;;;;;1.20;1.10;;;;;;;6.98;47.68;101277.25;6163551;23;20063;-76
2021/04/24 01:58:37;;;;;;;1.90;1.10;;;;;;;6.81;48.11;101266.06;6214177;23;20000;-76
2021/04/24 02:01:09;;;;;;;1.30;0.90;;;;;;;6.93;47.62;101286.06;6188238;23;20458;-77
2021/04/24 02:03:47;;;;;;;;;;;;;;;;;;;;;
2021/04/24 02:06:23;;;;;;;1.20;1.10;;;;;;;6.64;48.11;101268.47;6214945;23;20380;-76
2021/04/24 02:08:51;;;;;;;2.05;0.80;;;;;;;6.81;47.92;101299.53;6174595;23;20096;-76
2021/04/24 02:11:17;;;;;;;2.65;1.17;;;;;;;6.68;48.21;101288.75;6184542;23;20009;-76
2021/04/24 02:13:43;;;;;;;3.55;1.13;;;;;;;6.63;48.26;101283.16;6185727;23;20012;-76
2021/04/24 02:16:11;;;;;;;1.10;1.10;;;;;;;6.54;48.48;101281.72;6156502;23;20004;-76
2021/04/24 02:18:46;;;;;;;1.80;1.33;;;;;;;6.48;48.70;101283.41;6184182;23;20004;-75
2021/04/24 02:21:14;;;;;;;0.88;0.88;;;;;;;6.41;48.40;101288.91;6184362;23;20079;-76
2021/04/24 02:23:39;;;;;;;0.93;0.93;;;;;;;6.49;48.61;101300.56;6178680;23;20001;-76
2021/04/24 02:26:07;;;;;;;1.20;1.10;;;;;;;6.37;49.14;101297.72;6157586;23;20011;-75
2021/04/24 02:28:33;;;;;;;3.05;1.17;;;;;;;6.32;49.18;101290.19;6156001;23;20012;-76
2021/04/24 02:30:59;;;;;;;1.23;1.10;;;;;;;6.34;49.14;101304.41;6156918;23;20009;-75
2021/04/24 02:33:25;;;;;;;1.13;1.02;;;;;;;6.26;48.91;101291.06;6184120;23;20056;-75
2021/04/24 02:35:56;;;;;;;1.52;1.42;;;;;;;6.30;49.10;101303.16;6155770;23;20009;-74
2021/04/24 02:38:33;;;;;;;1.17;1.10;;;;;;;6.16;49.07;101296.94;6153118;23;20033;-76
2021/04/24 02:41:01;;;;;;;1.23;1.15;;;;;;;6.09;49.51;101290.72;6183003;23;20028;-76
2021/04/24 02:43:37;;;;;;;;;;;;;;;;;;;;;
2021/04/24 02:46:12;;;;;;;1.38;0.63;;;;;;;5.98;49.15;101305.78;6185978;23;20088;-75
2021/04/24 02:49:02;;;;;;;;;;;;;;;;;;;;;
2021/04/24 02:51:33;;;;;;;0.85;0.85;;;;;;;5.79;49.37;101290.38;6183416;23;20091;-76
2021/04/24 02:53:58;;;;;;;4.53;1.40;;;;;;;5.90;49.91;101309.56;6156272;23;20107;-76
2021/04/24 02:56:26;;;;;;;4.15;1.58;;;;;;;5.89;49.74;101309.75;6155718;23;20036;-76
2021/04/24 02:59:12;;;;;;;1.25;1.00;;;;;;;5.76;49.46;101303.31;6121526;23;20033;-76
2021/04/24 03:01:59;;;;;;;;;;;;;;;;;;;;;
2021/04/24 03:04:40;;;;;;;1.45;1.00;;;;;;;5.73;49.62;101324.63;6188951;23;20691;-76
2021/04/24 03:07:12;;;;;;;0.60;0.57;;;;;;;5.61;49.98;101310.88;6157974;23;20024;-76
2021/04/24 03:09:40;;;;;;;0.60;0.60;;;;;;;5.49;50.40;101301.69;6230054;23;20008;-77
2021/04/24 03:12:10;;;;;;;1.55;0.80;;;;;;;5.42;50.39;101288.97;6220799;23;20016;-78
2021/04/24 03:14:35;;;;;;;2.47;0.82;;;;;;;5.38;49.77;101290.44;6244908;23;20019;-77
2021/04/24 03:17:14;;;;;;;;;;;;;;;;;;;;;
2021/04/24 03:19:40;;;;;;;0.80;0.80;;;;;;;5.45;50.92;101311.28;6243323;23;20092;-77
2021/04/24 03:22:16;;;;;;;;;;;;;;;;;;;;;
2021/04/24 03:24:42;;;;;;;0.90;0.80;;;;;;;5.30;49.89;101306.09;6245362;23;20079;-76
2021/04/24 03:27:25;;;;;;;0.45;0.40;;;;;;;5.25;50.53;101301.28;6223735;23;20007;-77
2021/04/24 03:30:01;;;;;;;0.52;0.40;;;;;;;5.14;50.36;101293.78;6248841;22;20004;-76
2021/04/24 03:32:34;;;;;;;2.28;0.63;;;;;;;5.14;50.10;101299.22;6220922;23;20008;-77
2021/04/24 03:35:11;;;;;;;1.17;0.55;;;;;;;5.18;50.30;101322.16;6239453;23;20008;-78
2021/04/24 03:37:39;;;;;;;1.35;0.30;;;;;;;5.09;50.33;101312.56;6220752;23;20000;-76
2021/04/24 03:40:09;;;;;;;0.55;0.45;;;;;;;5.14;51.09;101326.31;6246036;23;20039;-74
2021/04/24 03:42:38;;;;;;;0.68;0.68;;;;;;;4.98;51.34;101323.00;6219584;23;20175;-77
2021/04/24 03:45:17;;;;;;;1.13;0.55;;;;;;;4.95;51.42;101319.84;6247424;23;19996;-79
2021/04/24 03:47:43;;;;;;;0.88;0.55;;;;;;;4.87;51.01;101315.47;6247170;23;20096;-78
2021/04/24 03:50:16;;;;;;;0.20;0.20;;;;;;;4.92;50.28;101322.97;6245624;23;20000;-77
2021/04/24 03:52:48;;;;;;;0.20;0.20;;;;;;;4.81;50.31;101310.88;6225845;23;20008;-76
2021/04/24 03:55:15;;;;;;;0.30;0.30;;;;;;;4.88;50.97;101319.84;6222909;23;20008;-77
2021/04/24 03:57:45;;;;;;;1.92;0.70;;;;;;;4.82;51.06;101323.34;6199454;23;20377;-76
2021/04/24 04:00:25;;;;;;;0.57;0.50;;;;;;;4.66;50.91;101303.75;6247825;23;20004;-77
2021/04/24 04:03:10;;;;;;;0.55;0.40;;;;;;;4.72;50.92;101330.03;6248977;23;20168;-75
2021/04/24 04:05:45;;;;;;;0.80;0.70;;;;;;;4.82;51.27;101340.47;6247532;23;20090;-76
2021/04/24 04:08:32;;;;;;;0.45;0.45;;;;;;;4.71;50.77;101322.91;6247125;23;20022;-76
2021/04/24 04:11:00;;;;;;;1.85;0.30;;;;;;;4.56;50.89;101314.16;6230879;23;20019;-77
2021/04/24 04:13:26;;;;;;;0.20;0.20;;;;;;;4.60;50.90;101317.28;6218707;23;20335;-75
2021/04/24 04:15:59;;;;;;;0.35;0.35;;;;;;;4.62;51.47;101324.16;6217950;23;20004;-76
2021/04/24 04:18:36;;;;;;;1.27;0.20;;;;;;;4.44;51.60;101299.50;6220046;23;20058;-76
2021/04/24 04:21:06;;;;;;;0.40;0.40;;;;;;;4.48;51.76;101314.31;6244060;23;20419;-76
2021/04/24 04:23:37;;;;;;;5.03;0.20;;;;;;;4.34;51.62;101300.75;6237268;23;20300;-76
2021/04/24 04:26:20;;;;;;;0.20;0.20;;;;;;;4.42;51.76;101323.28;6216495;23;20098;-76
2021/04/24 04:29:01;;;;;;;;;;;;;;;;;;;;;
2021/04/24 04:31:47;;;;;;;0.20;0.20;;;;;;;4.51;52.19;101341.00;6243793;23;20082;-76
2021/04/24 04:34:15;;;;;;;3.70;0.30;;;;;;;4.27;52.06;101321.53;6241546;23;20008;-76
2021/04/24 04:36:48;;;;;;;0.15;0.15;;;;;;;4.27;51.42;101326.13;6216803;23;20008;-76
2021/04/24 04:39:19;;;;;;;0.30;0.20;;;;;;;4.14;51.69;101302.53;6208651;23;20000;-75
2021/04/24 04:41:49;;;;;;;0.50;0.45;;;;;;;4.23;52.26;101333.81;6237899;23;20434;-76
2021/04/24 04:44:17;;;;;;;0.30;0.20;;;;;;;4.15;51.79;101317.75;6219525;23;20138;-76
2021/04/24 04:46:46;;;;;;;1.08;0.32;;;;;;;4.08;52.40;101306.88;6216758;23;20431;-77
2021/04/24 04:49:11;;;;;;;0.40;0.30;;;;;;;4.33;51.73;101352.41;6211291;23;20000;-76
2021/04/24 04:51:39;;;;;;;0.60;0.60;;;;;;;4.31;52.86;101355.31;6193052;23;20038;-76
2021/04/24 04:54:05;;;;;;;3.92;0.50;;;;;;;4.02;52.64;101303.13;6214855;23;20373;-76
2021/04/24 04:56:30;;;;;;;0.95;0.40;;;;;;;4.21;52.10;101327.78;6242454;23;20000;-75
2021/04/24 04:59:29;;;;;;;;;;;;;;;;;;;;;
2021/04/24 05:02:05;;;;;;;0.47;0.47;;;;;;;4.19;53.08;101324.41;6244409;23;20079;-75
2021/04/24 05:04:36;;;;;;;0.57;0.50;;;;;;;4.22;52.49;101329.47;6239724;23;20039;-76
2021/04/24 05:07:02;;;;;;;0.60;0.60;;;;;;;4.10;53.97;101298.56;6217044;23;20010;-77
2021/04/24 05:09:37;;;;;;;1.70;0.57;;;;;;;4.41;52.74;101359.50;6182687;23;20017;-75
2021/04/24 05:13:00;;;;;;;0.77;0.77;;;;;;;4.17;53.82;101318.38;6184601;23;20401;-77
2021/04/24 05:15:52;;;;;;;1.33;0.82;;;;;;;4.26;53.45;101330.69;6185007;23;20001;-75
2021/04/24 05:18:41;;;;;;;1.10;0.80;;;;;;;4.18;53.72;101312.75;6180302;23;19997;-75
2021/04/24 05:22:06;;;;;;;;;;;;;;;;;;;;;
2021/04/24 05:27:24;;;;;;;1.83;1.10;;;;;;;4.37;54.40;101340.97;6181522;23;20337;-77
2021/04/24 05:29:57;;;;;;;1.40;1.02;;;;;;;4.30;54.14;101337.38;6185671;23;20004;-76
2021/04/24 05:32:25;;;;;;;1.70;1.30;;;;;;;4.25;55.54;101322.78;6178338;23;20040;-77
2021/04/24 05:35:11;;;;;;;1.45;1.33;;;;;;;4.59;54.56;101372.50;6183344;23;20333;-77
2021/04/24 05:37:52;;;;;;;;;;;;;;;;;;;;;
2021/04/24 05:40:21;;;;;;;1.67;1.58;;;;;;;4.54;54.94;101337.88;6184301;23;20085;-75
2021/04/24 05:42:47;;;;;;;1.45;1.35;;;;;;;4.64;55.50;101345.63;6159458;23;20612;-77
2021/04/24 05:45:32;;;;;;;;;;;;;;;;;;;;;
2021/04/24 05:47:58;;;;;;;1.88;0.90;;;;;;;4.65;55.68;101326.47;6177283;23;20090;-76
2021/04/24 05:50:31;;;;;;;1.77;1.52;;;;;;;4.95;55.81;101349.66;6183914;23;20036;-76
2021/04/24 05:52:57;;;;;;;7.55;1.85;;;;;;;4.95;55.97;101345.09;6184649;23;20005;-74
2021/04/24 05:55:25;;;;;;;2.55;1.67;;;;;;;4.95;55.79;101327.97;6183269;23;20068;-74
2021/04/24 05:58:29;;;;;;;5.40;2.05;;;;;;;5.23;56.06;101352.22;6180280;23;19997;-79
2021/04/24 06:00:54;;;;;;;2.95;2.17;;;;;;;5.07;56.82;101310.88;6093618;23;20017;-80
2021/04/24 06:03:20;;;;;;;2.28;1.65;;;;;;;5.19;56.26;101313.00;6156334;23;20009;-77
2021/04/24 06:06:31;;;;;;;3.33;2.30;;;;;;;5.38;56.06;101322.16;6194954;23;20332;-81
2021/04/24 06:09:25;;;;;;;2.35;2.22;;;;;;;5.54;56.70;101326.31;6209250;23;20092;-80
2021/04/24 06:12:00;;;;;;;2.20;2.00;;;;;;;5.59;55.81;101318.38;6220594;23;20031;-77
2021/04/24 06:14:43;;;;;;;1.52;1.42;;;;;;;5.80;56.46;101332.72;6244698;23;20065;-76
2021/04/24 06:17:18;;;;;;;;;;;;;;;;;;;;;
2021/04/24 06:19:44;;;;;;;3.90;1.90;;;;;;;6.06;56.09;101335.44;6222611;23;20087;-79
2021/04/24 06:22:09;;;;;;;5.32;2.50;;;;;;;6.34;56.04;101364.16;6217255;23;20001;-75
2021/04/24 06:24:42;;;;;;;1.48;1.42;;;;;;;6.26;56.12;101331.81;6218578;23;20008;-74
2021/04/24 06:27:15;;;;;;;2.08;1.98;;;;;;;6.53;55.75;101350.72;6206265;23;20000;-74
2021/04/24 06:29:51;;;;;;;;;;;;;;;;;;;;;
2021/04/24 06:32:37;;;;;;;2.25;1.90;;;;;;;6.60;55.23;101340.63;6215829;23;20079;-75
2021/04/24 06:35:07;;;;;;;1.80;1.70;;;;;;;6.82;56.11;101371.88;6217134;23;20431;-76
2021/04/24 06:37:35;;;;;;;1.98;1.88;;;;;;;6.91;56.23;101368.91;6217256;23;20003;-76
2021/04/24 06:40:08;;;;;;;3.30;2.20;;;;;;;7.07;55.89;101387.44;6217384;23;20087;-75
2021/04/24 06:42:34;;;;;;;5.72;3.05;;;;;;;6.92;56.04;101349.66;6244293;23;20031;-76
2021/04/24 06:45:00;;;;;;;2.65;2.38;;;;;;;7.11;55.68;101363.34;6220163;23;20000;-75
2021/04/24 06:47:38;;;;;;;;;;;;;;;;;;;;;
2021/04/24 06:50:14;;;;;;;3.97;2.97;;;;;;;7.23;56.50;101352.56;6243853;23;20088;-75
2021/04/24 06:53:12;;;;;;;2.85;2.63;;;;;;;7.41;55.54;101368.97;6212239;23;20074;-76
2021/04/24 06:55:45;;;;;;;3.50;2.13;;;;;;;7.50;55.60;101367.66;6218102;23;20003;-77
2021/04/24 06:58:21;;;;;;;12.02;3.50;;;;;;;7.83;55.91;101399.19;6242592;23;20038;-76
2021/04/24 07:00:46;;;;;;;4.10;3.80;;;;;;;7.69;55.81;101364.97;6218498;23;20010;-75
2021/04/24 07:03:28;;;;;;;5.53;2.70;;;;;;;8.01;55.66;101390.19;6191791;23;20791;-78
2021/04/24 07:05:56;;;;;;;3.92;2.67;;;;;;;7.99;55.38;101369.72;6243625;23;20015;-77
2021/04/24 07:08:40;;;;;;;3.65;2.70;;;;;;;8.24;54.71;101393.34;6244463;22;20003;-76
2021/04/24 07:11:17;;;;;;;;;;;;;;;;;;;;;
2021/04/24 07:14:28;;;;;;;;;;;;;;;;;;;;;
2021/04/24 07:17:32;;;;;;;4.45;3.45;;;;;;;8.45;54.61;101365.63;6245663;23;20075;-75
2021/04/24 07:19:57;;;;;;;3.28;3.05;;;;;;;8.68;54.26;101388.63;6239352;23;20000;-76
2021/04/24 07:22:30;;;;;;;3.40;3.10;;;;;;;8.79;53.97;101393.31;6238648;23;20015;-74
2021/04/24 07:25:36;;;;;;;7.05;3.45;;;;;;;8.91;53.52;101390.63;6217694;23;20026;-77
2021/04/24 07:28:11;;;;;;;;;;;;;;;;;;;;;
2021/04/24 07:31:16;;;;;;;;;;;;;;;;;;;;;
2021/04/24 07:34:21;;;;;;;;;;;;;;;;;;;;;
2021/04/24 07:36:47;;;;;;;4.63;3.53;;;;;;;9.36;53.33;101389.31;6243337;23;20087;-76
2021/04/24 07:39:41;;;;;;;7.38;3.38;;;;;;;9.43;52.41;101381.88;6241294;23;20024;-76
2021/04/24 07:42:14;;;;;;;3.75;3.10;;;;;;;9.57;52.88;101386.03;6216073;23;20483;-76
2021/04/24 07:44:50;;;;;;;3.90;3.60;;;;;;;9.85;52.72;101417.28;6215275;23;20030;-74
2021/04/24 07:47:18;;;;;;;5.75;3.10;;;;;;;9.87;52.64;101390.59;6239171;23;20015;-74
2021/04/24 07:53:43;;;;;;;3.28;2.97;;;;;;;10.30;51.73;101399.47;6054903;23;20029;-78
2021/04/24 08:00:19;;;;;;;10.82;3.53;;;;;;;10.58;51.13;101395.97;6008669;23;20004;-79
2021/04/24 08:02:47;;;;;;;6.60;3.85;;;;;;;10.55;51.44;101379.22;5982774;23;20016;-76
2021/04/24 08:05:21;;;;;;;4.15;3.75;;;;;;;10.76;50.29;101386.75;6055717;23;20089;-77
2021/04/24 08:07:53;;;;;;;5.60;3.42;;;;;;;10.99;50.57;101413.22;6068290;23;20030;-75
2021/04/24 08:10:18;;;;;;;3.20;3.00;;;;;;;11.03;49.69;101391.63;6090314;23;20109;-74
2021/04/24 08:13:34;;;;;;;5.07;3.42;;;;;;;11.10;49.35;101362.22;6184020;23;20336;-75
2021/04/24 08:15:58;;;;;;;3.85;2.78;;;;;;;11.52;49.10;101411.13;6183868;23;20008;-75
2021/04/24 08:18:29;;;;;;;5.32;2.65;;;;;;;11.52;48.63;101393.84;6183691;23;20428;-73
2021/04/24 08:20:57;;;;;;;4.88;3.47;;;;;;;11.68;48.80;101381.22;6182499;23;20012;-74
2021/04/24 08:23:58;;;;;;;;;;;;;;;;;;;;;
2021/04/24 08:26:31;;;;;;;7.97;4.40;;;;;;;11.92;47.74;101370.91;6180716;23;20065;-76
2021/04/24 08:32:01;;;;;;;5.35;3.92;;;;;;;12.40;47.42;101393.25;6180732;23;20060;-78
2021/04/24 08:34:31;;;;;;;5.00;3.42;;;;;;;12.32;47.04;101363.53;6183757;23;20759;-75
2021/04/24 08:37:45;;;;;;;3.90;3.38;;;;;;;12.47;46.91;101355.50;6206371;23;20016;-76
2021/04/24 08:40:18;;;;;;;3.42;3.05;;;;;;;12.79;46.22;101353.91;6101114;23;20038;-76
2021/04/24 08:42:47;;;;;;;5.93;4.13;;;;;;;12.92;45.26;101345.25;6180158;23;20005;-73
2021/04/24 08:45:29;;;;;;;;;;;;;;;;;;;;;
2021/04/24 08:48:13;;;;;;;8.02;3.17;;;;;;;13.27;41.93;101368.66;6187484;23;20084;-79
2021/04/24 08:50:41;;;;;;;7.90;3.25;;;;;;;13.42;40.74;101365.25;6168080;23;20096;-78
2021/04/24 08:53:06;;;;;;;5.22;3.42;;;;;;;13.58;39.91;101368.94;6204471;23;20004;-77
2021/04/24 08:55:38;;;;;;;5.53;3.15;;;;;;;13.78;38.71;101362.75;6200652;23;20004;-78
2021/04/24 08:58:05;;;;;;;3.92;2.38;;;;;;;14.18;38.72;101371.50;6188759;23;20005;-76
2021/04/24 09:00:39;;;;;;;5.18;2.42;;;;;;;14.47;38.71;101356.25;6191866;23;20004;-77
2021/04/24 09:03:08;;;;;;;5.55;3.63;;;;;;;14.88;37.74;101374.00;6190042;23;20015;-77
2021/04/24 09:05:34;;;;;;;3.20;2.92;;;;;;;14.97;36.56;101364.13;6184372;23;20151;-76
2021/04/24 09:08:19;;;;;;;3.47;2.53;;;;;;;14.98;35.77;101360.25;6184958;23;20013;-78
2021/04/24 09:10:55;;;;;;;3.83;2.17;;;;;;;15.16;35.81;101364.44;6212468;23;20024;-78
2021/04/24 09:13:41;;;;;;;6.68;2.47;;;;;;;15.33;35.78;101347.63;6238788;23;20008;-75
2021/04/24 09:16:23;;;;;;;2.65;2.45;;;;;;;15.76;34.63;101356.41;6240478;23;20026;-75
2021/04/24 09:18:49;;;;;;;2.50;2.17;;;;;;;16.16;34.34;101357.44;6213581;23;19996;-77
2021/04/24 09:21:23;;;;;;;3.50;2.60;;;;;;;16.88;32.68;101362.66;6168079;23;20020;-79
2021/04/24 09:23:51;;;;;;;8.45;3.08;;;;;;;17.80;31.86;101385.16;6219110;23;20138;-77
2021/04/24 09:26:30;;;;;;;2.58;2.38;;;;;;;18.63;30.74;101374.84;6221179;23;20427;-76
2021/04/24 09:29:05;;;;;;;4.57;2.47;;;;;;;19.69;28.51;101372.66;6191452;23;20084;-74
2021/04/24 09:31:38;;;;;;;7.47;2.20;;;;;;;20.33;27.23;101366.47;6192405;23;20012;-77
2021/04/24 09:34:17;;;;;;;;;;;;;;;;;;;;;
2021/04/24 09:37:03;;;;;;;2.53;2.03;;;;;;;21.65;25.89;101382.38;6215077;23;20079;-75
2021/04/24 09:39:42;;;;;;;4.15;2.28;;;;;;;22.28;25.45;101374.00;6187875;23;20020;-75
2021/04/24 09:42:44;;;;;;;1.55;1.45;;;;;;;23.50;25.46;101385.31;6218569;23;20000;-76
2021/04/24 09:45:41;;;;;;;1.63;1.52;;;;;;;24.51;22.49;101399.94;6192977;23;20013;-76
2021/04/24 09:48:26;;;;;;;5.47;2.53;;;;;;;24.84;21.57;101391.69;6198560;23;20112;-78
2021/04/24 09:50:54;;;;;;;6.18;2.28;;;;;;;25.18;21.30;101378.59;6239438;23;20004;-78
2021/04/24 09:53:48;;;;;;;3.17;1.65;;;;;;;25.57;22.39;101379.22;6218602;23;20005;-79
2021/04/24 09:56:38;;;;;;;6.32;2.28;;;;;;;26.15;20.05;101392.41;6196919;23;20008;-80
2021/04/24 09:59:12;;;;;;;4.50;2.00;;;;;;;26.17;19.51;101381.69;6215365;23;20100;-75
2021/04/24 10:01:44;;;;;;;3.08;2.00;;;;;;;26.32;19.26;101391.38;6215313;23;20001;-78
2021/04/24 10:04:32;;;;;;;3.08;1.80;;;;;;;26.65;19.02;101390.44;6215996;23;20076;-76
2021/04/24 10:07:10;;;;;;;1.80;1.70;;;;;;;26.69;19.04;101398.97;6202851;23;20095;-79
2021/04/24 10:09:43;;;;;;;2.45;2.33;;;;;;;27.02;18.45;101417.63;6180583;23;20025;-77
2021/04/24 10:12:15;;;;;;;2.30;1.90;;;;;;;27.31;18.83;101413.69;6187266;23;20005;-80
2021/04/24 10:14:59;;;;;;;;;;;;;;;;;;;;;
2021/04/24 10:17:28;;;;;;;2.05;1.77;;;;;;;28.39;18.21;101406.16;6185950;23;20020;-76
2021/04/24 10:19:54;;;;;;;1.60;1.48;;;;;;;28.96;18.08;101405.88;6184664;23;20012;-76
2021/04/24 10:22:47;;;;;;;1.50;1.38;;;;;;;29.64;17.07;101408.44;6188398;23;20057;-74
2021/04/24 10:25:19;;;;;;;2.03;1.92;;;;;;;30.05;16.69;101404.00;6185090;23;20005;-78
2021/04/24 10:27:47;;;;;;;1.63;1.52;;;;;;;30.27;16.04;101398.69;6187153;23;20009;-77
2021/04/24 10:30:21;;;;;;;1.60;1.48;;;;;;;30.73;16.13;101395.81;6182837;23;20012;-75
2021/04/24 10:32:54;;;;;;;2.03;1.83;;;;;;;30.80;15.56;101393.09;6184684;23;20009;-77
2021/04/24 10:35:20;;;;;;;1.92;1.83;;;;;;;30.98;14.90;101398.16;6180389;23;20004;-79
2021/04/24 10:37:51;;;;;;;1.42;1.33;;;;;;;31.23;15.17;101392.03;6187107;23;20088;-78
2021/04/24 10:40:17;;;;;;;4.65;2.10;;;;;;;31.54;14.03;101404.09;6183816;23;20009;-76
2021/04/24 10:42:49;;;;;;;2.30;2.20;;;;;;;31.50;14.73;101396.41;6184932;23;20001;-76
2021/04/24 10:45:33;;;;;;;1.45;1.35;;;;;;;31.64;14.44;101400.59;6187132;23;20012;-76
2021/04/24 10:47:59;;;;;;;2.40;2.13;;;;;;;31.69;14.65;101403.09;6190695;23;20005;-78
2021/04/24 10:50:47;;;;;;;1.75;1.65;;;;;;;32.13;14.81;101399.47;6208062;23;20016;-77
2021/04/24 10:53:31;;;;;;;1.55;1.25;;;;;;;32.72;13.71;101404.34;6186118;23;20428;-77
2021/04/24 10:56:00;;;;;;;1.75;1.65;;;;;;;32.82;13.35;101408.47;6180545;23;20009;-77
2021/04/24 10:58:33;;;;;;;1.83;1.73;;;;;;;32.95;13.14;101403.28;6185148;23;20395;-77
2021/04/24 11:01:09;;;;;;;5.20;1.77;;;;;;;33.30;12.71;101393.31;6151504;23;20044;-76
2021/04/24 11:03:48;;;;;;;2.08;1.65;;;;;;;33.45;13.00;101397.81;6158322;23;20009;-76
2021/04/24 11:06:18;;;;;;;5.22;1.88;;;;;;;33.31;12.60;101392.09;6185025;23;20005;-77
2021/04/24 11:08:48;;;;;;;4.18;1.75;;;;;;;33.31;12.95;101384.41;6195301;23;20083;-76
2021/04/24 11:11:18;;;;;;;1.88;1.77;;;;;;;33.56;12.88;101380.84;6218704;23;20004;-77
2021/04/24 11:13:58;;;;;;;1.30;1.20;;;;;;;34.08;12.69;101384.16;6243924;23;20008;-77
2021/04/24 11:16:32;;;;;;;1.48;1.23;;;;;;;34.53;12.83;101369.50;6219941;23;20004;-76
2021/04/24 11:18:58;;;;;;;1.70;1.60;;;;;;;35.10;12.16;101373.38;6245855;23;20020;-74
2021/04/24 11:21:26;;;;;;;1.05;0.95;;;;;;;35.50;11.60;101368.31;6215953;23;20012;-76
2021/04/24 11:23:55;;;;;;;1.95;1.60;;;;;;;35.85;10.98;101380.69;6221029;23;20091;-78
2021/04/24 11:26:27;;;;;;;1.42;1.33;;;;;;;35.89;11.17;101387.13;6219399;23;20087;-77
2021/04/24 11:29:10;;;;;;;1.98;1.75;;;;;;;36.17;10.75;101388.13;6217576;23;20000;-77
2021/04/24 11:31:45;;;;;;;1.88;1.73;;;;;;;36.19;10.39;101380.00;6219648;23;20015;-76
2021/04/24 11:34:28;;;;;;;1.65;1.30;;;;;;;36.71;10.56;101383.94;6223720;23;20027;-76
2021/04/24 11:37:15;;;;;;;1.65;1.55;;;;;;;37.26;10.04;101382.88;6250728;23;20059;-76
2021/04/24 11:40:10;;;;;;;2.53;1.60;;;;;;;37.66;10.40;101383.13;6225164;23;20004;-76
2021/04/24 11:42:57;;;;;;;1.00;1.00;;;;;;;38.27;9.72;101369.91;6255719;23;20023;-76
2021/04/24 11:45:51;;;;;;;3.53;1.73;;;;;;;38.39;9.66;101372.13;6228528;23;20030;-76
2021/04/24 11:48:49;;;;;;;1.23;1.00;;;;;;;39.06;9.78;101370.38;6226960;23;20010;-77
2021/04/24 11:51:43;;;;;;;1.35;1.10;;;;;;;39.93;9.12;101372.06;6227155;23;20041;-76
2021/04/24 11:54:15;;;;;;;1.27;1.17;;;;;;;39.85;9.01;101368.59;6240188;23;20446;-76
2021/04/24 11:56:58;;;;;;;1.60;1.50;;;;;;;39.61;8.87;101353.66;6253001;23;20000;-74
2021/04/24 12:02:31;;;;;;;1.83;1.73;;;;;;;39.03;8.53;101332.03;6247109;23;20323;-76
2021/04/24 12:05:09;;;;;;;1.63;1.52;;;;;;;38.79;7.89;101347.72;6243844;23;20453;-76
2021/04/24 12:07:51;;;;;;;2.03;1.40;;;;;;;38.15;8.59;101341.97;6247760;23;20011;-75
2021/04/24 12:10:31;;;;;;;6.60;1.95;;;;;;;38.20;8.93;101341.47;6164549;23;20060;-76
2021/04/24 12:13:28;;;;;;;2.13;1.85;;;;;;;38.89;8.33;101358.91;6184506;23;20031;-76
2021/04/24 12:15:54;;;;;;;1.92;1.83;;;;;;;38.63;8.39;101342.69;6168489;23;20009;-77
2021/04/24 12:18:29;;;;;;;1.48;1.38;;;;;;;38.40;8.46;101336.59;6186935;23;20401;-78
2021/04/24 12:20:57;;;;;;;3.08;2.20;;;;;;;38.61;8.76;101334.56;6180129;23;20013;-77
2021/04/24 12:23:25;;;;;;;1.92;1.67;;;;;;;38.65;8.36;101329.56;6209942;23;20008;-77
2021/04/24 12:25:56;;;;;;;1.75;1.65;;;;;;;38.68;8.24;101337.28;6206746;23;20005;-78
2021/04/24 12:28:24;;;;;;;0.80;0.80;;;;;;;38.97;8.72;101327.31;6186091;23;20036;-75
2021/04/24 12:30:53;;;;;;;3.95;1.67;;;;;;;39.27;8.19;101326.25;6185143;23;20155;-76
2021/04/24 12:33:33;;;;;;;1.80;1.70;;;;;;;39.38;8.12;101326.75;6186724;23;20028;-76
2021/04/24 12:36:03;;;;;;;1.48;1.38;;;;;;;39.47;7.89;101333.94;6184555;23;20041;-75
2021/04/24 12:38:37;;;;;;;1.60;1.50;;;;;;;39.60;8.09;101324.22;6186954;23;20001;-76
2021/04/24 12:41:16;;;;;;;;;;;;;;;;;;;;;
2021/04/24 12:43:59;;;;;;;2.83;1.40;;;;;;;39.84;7.66;101326.91;6186380;23;20084;-76
2021/04/24 12:46:27;;;;;;;0.90;0.80;;;;;;;40.25;8.12;101330.34;6184368;23;20009;-75
2021/04/24 12:49:08;;;;;;;2.30;1.25;;;;;;;40.71;7.91;101316.75;6184492;23;20005;-73
2021/04/24 12:51:37;;;;;;;2.50;1.77;;;;;;;40.81;7.48;101327.06;6184028;23;19997;-76
2021/04/24 12:54:35;;;;;;;2.70;1.60;;;;;;;41.22;6.93;101338.16;6209893;23;20008;-76
2021/04/24 12:57:22;;;;;;;1.45;1.35;;;;;;;40.73;7.38;101311.38;6182871;23;20060;-78
2021/04/24 13:00:54;;;;;;;;;;;;;;;;;;;;;
2021/04/24 13:04:31;;;;;;;;;;;;;;;;;;;;;
2021/04/24 13:07:13;;;;;;;;;;;;;;;;;;;;;
2021/04/24 13:20:14;;;;;;;;;;;;;;;;;;;;;
2021/04/24 13:23:11;;;;;;;1.98;1.70;;;;;;;40.82;7.37;101322.16;6192801;23;20036;-76
2021/04/24 13:26:01;;;;;;;1.23;1.17;;;;;;;40.59;7.20;101315.44;6191798;23;20004;-77
2021/04/24 13:28:44;;;;;;;2.05;1.63;;;;;;;40.66;7.20;101314.44;6193700;23;20432;-76
2021/04/24 13:31:16;;;;;;;2.08;1.88;;;;;;;40.31;7.14;101294.16;6164212;23;20009;-76
2021/04/24 13:33:54;;;;;;;;;;;;;;;;;;;;;